sensor_id;sensor_type;location;lat;lon;timestamp;pressure;altitude;pressure_sealevel;temperature;humidity
28797;BME280;24974;54.444;18.560;2024-01-15T00:00:49;98394.63;;;5.54;60.97
28797;BME280;24974;54.444;18.560;2024-01-15T00:03:19;98391.78;;;5.21;61.34
28797;BME280;24974;54.444;18.560;2024-01-15T00:05:50;98397.38;;;4.65;62.32
28797;BME280;24974;54.444;18.560;2024-01-15T00:08:21;98391.75;;;5.29;60.87
28797;BME280;24974;54.444;18.560;2024-01-15T00:10:52;98394.53;;;4.91;61.10
28797;BME280;24974;54.444;18.560;2024-01-15T00:13:23;98390.00;;;4.66;61.53
28797;BME280;24974;54.444;18.560;2024-01-15T00:15:54;98378.28;;;5.03;60.98
28797;BME280;24974;54.444;18.560;2024-01-15T00:18:24;98377.41;;;4.53;61.93
28797;BME280;24974;54.444;18.560;2024-01-15T00:20:55;98387.91;;;5.30;60.04
28797;BME280;24974;54.444;18.560;2024-01-15T00:23:26;98381.75;;;5.13;60.57
28797;BME280;24974;54.444;18.560;2024-01-15T00:25:57;98382.66;;;4.66;61.69
28797;BME280;24974;54.444;18.560;2024-01-15T00:28:28;98369.34;;;5.45;60.25
28797;BME280;24974;54.444;18.560;2024-01-15T00:30:59;98365.66;;;5.49;59.98
28797;BME280;24974;54.444;18.560;2024-01-15T00:33:30;98356.47;;;5.33;59.79
28797;BME280;24974;54.444;18.560;2024-01-15T00:36:02;98363.97;;;6.44;57.44
28797;BME280;24974;54.444;18.560;2024-01-15T00:38:33;98341.34;;;4.94;60.32
28797;BME280;24974;54.444;18.560;2024-01-15T00:41:04;98335.97;;;5.89;58.22
28797;BME280;24974;54.444;18.560;2024-01-15T00:43:35;98324.56;;;5.13;60.76
28797;BME280;24974;54.444;18.560;2024-01-15T00:46:06;98325.88;;;4.86;61.08
28797;BME280;24974;54.444;18.560;2024-01-15T00:48:37;98320.53;;;5.19;60.60
28797;BME280;24974;54.444;18.560;2024-01-15T00:51:08;98328.78;;;4.81;61.37
28797;BME280;24974;54.444;18.560;2024-01-15T00:53:39;98312.56;;;5.34;59.63
28797;BME280;24974;54.444;18.560;2024-01-15T00:56:10;98312.91;;;5.33;60.06
28797;BME280;24974;54.444;18.560;2024-01-15T00:58:41;98304.13;;;5.48;59.42
28797;BME280;24974;54.444;18.560;2024-01-15T01:01:12;98303.19;;;4.82;61.45
28797;BME280;24974;54.444;18.560;2024-01-15T01:03:43;98296.50;;;5.21;60.33
28797;BME280;24974;54.444;18.560;2024-01-15T01:06:14;98295.59;;;4.87;61.41
28797;BME280;24974;54.444;18.560;2024-01-15T01:08:45;98292.31;;;4.82;61.56
28797;BME280;24974;54.444;18.560;2024-01-15T01:11:16;98290.16;;;4.66;61.33
28797;BME280;24974;54.444;18.560;2024-01-15T01:13:47;98300.59;;;4.85;59.64
28797;BME280;24974;54.444;18.560;2024-01-15T01:16:18;98280.34;;;4.95;60.19
28797;BME280;24974;54.444;18.560;2024-01-15T01:18:48;98279.44;;;5.32;59.07
28797;BME280;24974;54.444;18.560;2024-01-15T01:21:19;98276.91;;;4.86;59.80
28797;BME280;24974;54.444;18.560;2024-01-15T01:23:50;98275.19;;;5.23;59.38
28797;BME280;24974;54.444;18.560;2024-01-15T01:26:21;98279.09;;;5.34;58.93
28797;BME280;24974;54.444;18.560;2024-01-15T01:28:52;98268.09;;;4.59;60.56
28797;BME280;24974;54.444;18.560;2024-01-15T01:31:23;98266.81;;;4.86;60.63
28797;BME280;24974;54.444;18.560;2024-01-15T01:33:54;98279.56;;;5.15;59.32
28797;BME280;24974;54.444;18.560;2024-01-15T01:36:25;98264.69;;;4.33;62.47
28797;BME280;24974;54.444;18.560;2024-01-15T01:38:56;98249.41;;;5.20;60.12
28797;BME280;24974;54.444;18.560;2024-01-15T01:41:27;98246.06;;;4.73;61.38
28797;BME280;24974;54.444;18.560;2024-01-15T01:43:57;98248.91;;;4.26;62.10
28797;BME280;24974;54.444;18.560;2024-01-15T01:46:28;98245.22;;;4.60;61.41
28797;BME280;24974;54.444;18.560;2024-01-15T01:49:00;98253.72;;;4.80;61.27
28797;BME280;24974;54.444;18.560;2024-01-15T01:51:36;98229.19;;;4.00;63.32
28797;BME280;24974;54.444;18.560;2024-01-15T01:54:08;98229.69;;;5.02;61.00
28797;BME280;24974;54.444;18.560;2024-01-15T01:56:42;98229.44;;;5.16;60.99
28797;BME280;24974;54.444;18.560;2024-01-15T01:59:13;98229.25;;;5.00;60.86
28797;BME280;24974;54.444;18.560;2024-01-15T02:01:44;98216.50;;;4.12;63.83
28797;BME280;24974;54.444;18.560;2024-01-15T02:04:16;98217.16;;;4.89;61.74
28797;BME280;24974;54.444;18.560;2024-01-15T02:06:47;98214.91;;;4.41;63.87
28797;BME280;24974;54.444;18.560;2024-01-15T02:09:19;98213.69;;;5.01;62.31
28797;BME280;24974;54.444;18.560;2024-01-15T02:11:49;98202.25;;;4.15;65.34
28797;BME280;24974;54.444;18.560;2024-01-15T02:14:20;98198.66;;;4.32;65.01
28797;BME280;24974;54.444;18.560;2024-01-15T02:16:52;98185.66;;;4.08;65.38
28797;BME280;24974;54.444;18.560;2024-01-15T02:19:23;98189.00;;;5.06;62.50
28797;BME280;24974;54.444;18.560;2024-01-15T02:21:54;98185.66;;;3.79;65.69
28797;BME280;24974;54.444;18.560;2024-01-15T02:24:25;98179.00;;;4.77;63.48
28797;BME280;24974;54.444;18.560;2024-01-15T02:26:55;98165.84;;;5.00;62.96
28797;BME280;24974;54.444;18.560;2024-01-15T02:29:26;98171.28;;;4.37;63.67
28797;BME280;24974;54.444;18.560;2024-01-15T02:31:57;98165.31;;;3.85;66.20
28797;BME280;24974;54.444;18.560;2024-01-15T02:34:31;98155.03;;;4.29;65.38
28797;BME280;24974;54.444;18.560;2024-01-15T02:37:02;98141.88;;;4.72;63.60
28797;BME280;24974;54.444;18.560;2024-01-15T02:39:33;98133.84;;;3.46;67.10
28797;BME280;24974;54.444;18.560;2024-01-15T02:42:04;98133.63;;;3.98;66.58
28797;BME280;24974;54.444;18.560;2024-01-15T02:44:35;98130.34;;;4.55;65.30
28797;BME280;24974;54.444;18.560;2024-01-15T02:47:06;98131.22;;;3.67;68.01
28797;BME280;24974;54.444;18.560;2024-01-15T02:49:37;98134.16;;;4.41;66.80
28797;BME280;24974;54.444;18.560;2024-01-15T02:52:08;98135.59;;;4.60;65.86
28797;BME280;24974;54.444;18.560;2024-01-15T02:54:39;98136.06;;;4.41;66.67
28797;BME280;24974;54.444;18.560;2024-01-15T02:57:09;98122.75;;;3.98;67.35
28797;BME280;24974;54.444;18.560;2024-01-15T02:59:40;98128.56;;;3.49;68.90
28797;BME280;24974;54.444;18.560;2024-01-15T03:02:11;98113.69;;;4.98;64.21
28797;BME280;24974;54.444;18.560;2024-01-15T03:04:45;98101.22;;;4.13;67.39
28797;BME280;24974;54.444;18.560;2024-01-15T03:07:16;98097.75;;;4.34;65.73
28797;BME280;24974;54.444;18.560;2024-01-15T03:09:47;98088.66;;;4.51;65.86
28797;BME280;24974;54.444;18.560;2024-01-15T03:12:17;98087.09;;;4.62;65.88
28797;BME280;24974;54.444;18.560;2024-01-15T03:14:48;98075.91;;;4.42;66.40
28797;BME280;24974;54.444;18.560;2024-01-15T03:17:19;98066.59;;;3.13;70.77
28797;BME280;24974;54.444;18.560;2024-01-15T03:19:50;98069.19;;;3.98;68.23
28797;BME280;24974;54.444;18.560;2024-01-15T03:22:21;98067.81;;;3.62;70.22
28797;BME280;24974;54.444;18.560;2024-01-15T03:24:52;98055.16;;;3.96;69.50
28797;BME280;24974;54.444;18.560;2024-01-15T03:27:24;98051.63;;;3.36;71.28
28797;BME280;24974;54.444;18.560;2024-01-15T03:29:54;98049.25;;;3.64;70.26
28797;BME280;24974;54.444;18.560;2024-01-15T03:32:25;98049.34;;;3.77;69.76
28797;BME280;24974;54.444;18.560;2024-01-15T03:34:56;98033.69;;;3.44;71.32
28797;BME280;24974;54.444;18.560;2024-01-15T03:37:27;98053.44;;;3.62;69.82
28797;BME280;24974;54.444;18.560;2024-01-15T03:39:58;98033.94;;;3.30;71.43
28797;BME280;24974;54.444;18.560;2024-01-15T03:42:29;98039.69;;;3.88;70.09
28797;BME280;24974;54.444;18.560;2024-01-15T03:45:00;98028.94;;;3.41;71.73
28797;BME280;24974;54.444;18.560;2024-01-15T03:47:30;98035.34;;;3.66;70.78
28797;BME280;24974;54.444;18.560;2024-01-15T03:50:01;98029.22;;;3.78;70.62
28797;BME280;24974;54.444;18.560;2024-01-15T03:52:32;98018.13;;;2.94;73.43
28797;BME280;24974;54.444;18.560;2024-01-15T03:55:04;98032.78;;;4.32;69.50
28797;BME280;24974;54.444;18.560;2024-01-15T03:57:35;98015.50;;;3.45;71.04
28797;BME280;24974;54.444;18.560;2024-01-15T04:00:07;98020.25;;;3.56;71.38
28797;BME280;24974;54.444;18.560;2024-01-15T04:02:39;98006.13;;;3.33;72.14
28797;BME280;24974;54.444;18.560;2024-01-15T04:05:10;98009.13;;;3.70;70.99
28797;BME280;24974;54.444;18.560;2024-01-15T04:07:41;98005.81;;;3.64;70.91
28797;BME280;24974;54.444;18.560;2024-01-15T04:10:11;98008.47;;;3.73;71.08
28797;BME280;24974;54.444;18.560;2024-01-15T04:12:42;97996.28;;;3.20;72.88
28797;BME280;24974;54.444;18.560;2024-01-15T04:15:13;97999.13;;;3.83;70.91
28797;BME280;24974;54.444;18.560;2024-01-15T04:17:44;97993.22;;;3.30;72.37
28797;BME280;24974;54.444;18.560;2024-01-15T04:20:15;97986.69;;;3.52;71.78
28797;BME280;24974;54.444;18.560;2024-01-15T04:22:46;97984.63;;;3.79;71.51
28797;BME280;24974;54.444;18.560;2024-01-15T04:25:17;97976.75;;;3.86;70.62
28797;BME280;24974;54.444;18.560;2024-01-15T04:27:48;97977.53;;;4.07;70.56
28797;BME280;24974;54.444;18.560;2024-01-15T04:30:18;97977.59;;;3.99;70.22
28797;BME280;24974;54.444;18.560;2024-01-15T04:32:49;97979.47;;;3.06;73.68
28797;BME280;24974;54.444;18.560;2024-01-15T04:35:20;97967.69;;;3.31;72.21
28797;BME280;24974;54.444;18.560;2024-01-15T04:37:52;97963.66;;;4.00;70.58
28797;BME280;24974;54.444;18.560;2024-01-15T04:40:22;97959.97;;;4.05;71.21
28797;BME280;24974;54.444;18.560;2024-01-15T04:42:54;97955.31;;;4.05;70.93
28797;BME280;24974;54.444;18.560;2024-01-15T04:45:25;97957.16;;;3.30;72.12
28797;BME280;24974;54.444;18.560;2024-01-15T04:47:59;97957.00;;;3.26;72.83
28797;BME280;24974;54.444;18.560;2024-01-15T04:50:30;97956.09;;;3.43;71.99
28797;BME280;24974;54.444;18.560;2024-01-15T04:53:01;97957.91;;;3.60;71.95
28797;BME280;24974;54.444;18.560;2024-01-15T04:55:31;97958.47;;;3.24;72.65
28797;BME280;24974;54.444;18.560;2024-01-15T04:58:02;97953.41;;;3.85;70.91
28797;BME280;24974;54.444;18.560;2024-01-15T05:00:33;97936.22;;;4.14;70.99
28797;BME280;24974;54.444;18.560;2024-01-15T05:03:04;97944.38;;;4.47;69.66
28797;BME280;24974;54.444;18.560;2024-01-15T05:05:35;97923.31;;;2.98;73.58
28797;BME280;24974;54.444;18.560;2024-01-15T05:08:06;97939.72;;;4.14;70.62
28797;BME280;24974;54.444;18.560;2024-01-15T05:10:37;97935.97;;;4.07;70.59
28797;BME280;24974;54.444;18.560;2024-01-15T05:13:08;97943.66;;;4.05;69.84
28797;BME280;24974;54.444;18.560;2024-01-15T05:15:39;97950.16;;;3.91;69.32
28797;BME280;24974;54.444;18.560;2024-01-15T05:18:10;97951.88;;;3.96;69.32
28797;BME280;24974;54.444;18.560;2024-01-15T05:20:40;97936.56;;;3.50;69.36
28797;BME280;24974;54.444;18.560;2024-01-15T05:23:11;97931.44;;;3.78;68.75
28797;BME280;24974;54.444;18.560;2024-01-15T05:25:42;97927.44;;;3.75;69.35
28797;BME280;24974;54.444;18.560;2024-01-15T05:28:14;97927.81;;;4.07;68.47
28797;BME280;24974;54.444;18.560;2024-01-15T05:30:45;97924.38;;;3.98;68.33
28797;BME280;24974;54.444;18.560;2024-01-15T05:33:16;97919.50;;;4.24;67.42
28797;BME280;24974;54.444;18.560;2024-01-15T05:35:47;97915.53;;;3.17;69.91
28797;BME280;24974;54.444;18.560;2024-01-15T05:38:18;97909.94;;;3.43;67.22
28797;BME280;24974;54.444;18.560;2024-01-15T05:40:49;97927.59;;;3.79;66.46
28797;BME280;24974;54.444;18.560;2024-01-15T05:43:20;97920.00;;;4.05;64.30
28797;BME280;24974;54.444;18.560;2024-01-15T05:45:50;97915.31;;;3.73;64.68
28797;BME280;24974;54.444;18.560;2024-01-15T05:48:21;97926.22;;;3.85;65.80
28797;BME280;24974;54.444;18.560;2024-01-15T05:50:52;97924.66;;;3.63;65.81
28797;BME280;24974;54.444;18.560;2024-01-15T05:53:23;97925.00;;;3.61;65.57
28797;BME280;24974;54.444;18.560;2024-01-15T05:55:54;97925.72;;;3.71;65.49
28797;BME280;24974;54.444;18.560;2024-01-15T05:58:26;97913.22;;;3.78;65.26
28797;BME280;24974;54.444;18.560;2024-01-15T06:00:57;97911.59;;;3.98;64.75
28797;BME280;24974;54.444;18.560;2024-01-15T06:03:28;97909.47;;;3.41;65.20
28797;BME280;24974;54.444;18.560;2024-01-15T06:05:59;97918.31;;;3.38;64.92
28797;BME280;24974;54.444;18.560;2024-01-15T06:08:30;97919.44;;;3.58;65.33
28797;BME280;24974;54.444;18.560;2024-01-15T06:11:01;97915.91;;;3.57;64.99
28797;BME280;24974;54.444;18.560;2024-01-15T06:13:31;97905.19;;;4.15;63.59
28797;BME280;24974;54.444;18.560;2024-01-15T06:16:02;97900.28;;;3.54;64.26
28797;BME280;24974;54.444;18.560;2024-01-15T06:18:33;97910.19;;;3.92;63.42
28797;BME280;24974;54.444;18.560;2024-01-15T06:21:04;97910.31;;;3.62;63.64
28797;BME280;24974;54.444;18.560;2024-01-15T06:23:36;97916.00;;;3.70;63.96
28797;BME280;24974;54.444;18.560;2024-01-15T06:26:07;97912.38;;;3.36;64.05
28797;BME280;24974;54.444;18.560;2024-01-15T06:28:38;97901.78;;;2.93;65.04
28797;BME280;24974;54.444;18.560;2024-01-15T06:31:09;97901.41;;;3.32;64.61
28797;BME280;24974;54.444;18.560;2024-01-15T06:33:40;97916.66;;;3.67;63.24
28797;BME280;24974;54.444;18.560;2024-01-15T06:36:11;97897.25;;;2.76;65.48
28797;BME280;24974;54.444;18.560;2024-01-15T06:38:43;97901.75;;;4.06;62.50
28797;BME280;24974;54.444;18.560;2024-01-15T06:41:15;97900.94;;;3.72;62.94
28797;BME280;24974;54.444;18.560;2024-01-15T06:43:45;97902.38;;;3.07;64.90
28797;BME280;24974;54.444;18.560;2024-01-15T06:46:20;97894.28;;;3.70;63.08
28797;BME280;24974;54.444;18.560;2024-01-15T06:48:52;97889.19;;;3.18;65.05
28797;BME280;24974;54.444;18.560;2024-01-15T06:51:23;97890.44;;;3.20;64.28
28797;BME280;24974;54.444;18.560;2024-01-15T06:53:54;97892.34;;;2.99;65.81
28797;BME280;24974;54.444;18.560;2024-01-15T06:56:25;97883.50;;;4.27;61.97
28797;BME280;24974;54.444;18.560;2024-01-15T06:58:56;97884.06;;;4.00;62.82
28797;BME280;24974;54.444;18.560;2024-01-15T07:01:27;97882.22;;;3.38;65.03
28797;BME280;24974;54.444;18.560;2024-01-15T07:03:58;97876.22;;;3.86;63.27
28797;BME280;24974;54.444;18.560;2024-01-15T07:06:29;97874.66;;;3.43;64.55
28797;BME280;24974;54.444;18.560;2024-01-15T07:09:01;97864.84;;;3.51;64.58
28797;BME280;24974;54.444;18.560;2024-01-15T07:11:32;97870.88;;;2.85;65.63
28797;BME280;24974;54.444;18.560;2024-01-15T07:14:03;97879.47;;;3.58;64.32
28797;BME280;24974;54.444;18.560;2024-01-15T07:16:35;97869.06;;;4.14;63.26
28797;BME280;24974;54.444;18.560;2024-01-15T07:19:05;97855.97;;;3.42;65.45
28797;BME280;24974;54.444;18.560;2024-01-15T07:21:37;97871.22;;;3.13;67.17
28797;BME280;24974;54.444;18.560;2024-01-15T07:24:10;97876.22;;;3.44;66.44
28797;BME280;24974;54.444;18.560;2024-01-15T07:26:41;97861.69;;;3.70;66.08
28797;BME280;24974;54.444;18.560;2024-01-15T07:29:12;97860.88;;;3.48;66.73
28797;BME280;24974;54.444;18.560;2024-01-15T07:31:51;97853.06;;;3.47;67.03
28797;BME280;24974;54.444;18.560;2024-01-15T07:34:22;97857.56;;;3.63;66.75
28797;BME280;24974;54.444;18.560;2024-01-15T07:36:53;97859.81;;;2.99;67.57
28797;BME280;24974;54.444;18.560;2024-01-15T07:39:24;97856.78;;;3.96;65.39
28797;BME280;24974;54.444;18.560;2024-01-15T07:41:56;97863.97;;;3.17;67.58
28797;BME280;24974;54.444;18.560;2024-01-15T07:44:27;97840.50;;;3.75;66.90
28797;BME280;24974;54.444;18.560;2024-01-15T07:46:58;97858.75;;;3.12;67.74
28797;BME280;24974;54.444;18.560;2024-01-15T07:49:29;97846.25;;;3.20;67.44
28797;BME280;24974;54.444;18.560;2024-01-15T07:52:00;97843.84;;;3.18;67.67
28797;BME280;24974;54.444;18.560;2024-01-15T07:54:32;97855.81;;;2.96;67.65
28797;BME280;24974;54.444;18.560;2024-01-15T07:57:03;97839.28;;;3.85;64.63
28797;BME280;24974;54.444;18.560;2024-01-15T07:59:35;97842.66;;;4.03;65.08
28797;BME280;24974;54.444;18.560;2024-01-15T08:02:06;97846.06;;;3.25;66.14
28797;BME280;24974;54.444;18.560;2024-01-15T08:04:37;97843.22;;;3.21;66.11
28797;BME280;24974;54.444;18.560;2024-01-15T08:07:09;97845.13;;;3.62;64.84
28797;BME280;24974;54.444;18.560;2024-01-15T08:09:40;97841.25;;;4.30;63.53
28797;BME280;24974;54.444;18.560;2024-01-15T08:12:10;97833.06;;;4.17;64.43
28797;BME280;24974;54.444;18.560;2024-01-15T08:14:42;97853.78;;;4.10;64.08
28797;BME280;24974;54.444;18.560;2024-01-15T08:17:13;97832.09;;;3.89;64.36
28797;BME280;24974;54.444;18.560;2024-01-15T08:19:43;97851.81;;;4.43;62.45
28797;BME280;24974;54.444;18.560;2024-01-15T08:22:14;97834.00;;;3.14;66.51
28797;BME280;24974;54.444;18.560;2024-01-15T08:24:45;97838.88;;;4.40;63.41
28797;BME280;24974;54.444;18.560;2024-01-15T08:27:16;97824.16;;;4.90;61.84
28797;BME280;24974;54.444;18.560;2024-01-15T08:29:47;97826.88;;;4.41;62.05
28797;BME280;24974;54.444;18.560;2024-01-15T08:32:18;97836.84;;;4.37;61.77
28797;BME280;24974;54.444;18.560;2024-01-15T08:34:48;97832.53;;;4.36;61.82
28797;BME280;24974;54.444;18.560;2024-01-15T08:37:22;97827.34;;;4.68;61.53
28797;BME280;24974;54.444;18.560;2024-01-15T08:39:53;97830.50;;;4.58;61.93
28797;BME280;24974;54.444;18.560;2024-01-15T08:42:24;97838.66;;;4.45;62.22
28797;BME280;24974;54.444;18.560;2024-01-15T08:44:55;97852.41;;;4.04;62.59
28797;BME280;24974;54.444;18.560;2024-01-15T08:47:26;97823.25;;;4.74;60.79
28797;BME280;24974;54.444;18.560;2024-01-15T08:49:56;97824.78;;;4.14;62.25
28797;BME280;24974;54.444;18.560;2024-01-15T08:52:27;97824.59;;;4.56;62.56
28797;BME280;24974;54.444;18.560;2024-01-15T08:54:59;97816.38;;;3.41;66.11
28797;BME280;24974;54.444;18.560;2024-01-15T08:57:30;97845.13;;;3.42;68.36
28797;BME280;24974;54.444;18.560;2024-01-15T09:00:01;97830.81;;;3.12;69.99
28797;BME280;24974;54.444;18.560;2024-01-15T09:02:32;97828.69;;;3.59;68.71
28797;BME280;24974;54.444;18.560;2024-01-15T09:05:03;97836.66;;;3.76;69.93
28797;BME280;24974;54.444;18.560;2024-01-15T09:07:35;97826.56;;;3.02;71.56
28797;BME280;24974;54.444;18.560;2024-01-15T09:10:06;97828.22;;;3.90;69.36
28797;BME280;24974;54.444;18.560;2024-01-15T09:12:37;97816.03;;;3.96;67.91
28797;BME280;24974;54.444;18.560;2024-01-15T09:15:10;97808.50;;;4.38;67.20
28797;BME280;24974;54.444;18.560;2024-01-15T09:17:40;97803.97;;;3.85;67.37
28797;BME280;24974;54.444;18.560;2024-01-15T09:20:11;97813.84;;;3.89;67.02
28797;BME280;24974;54.444;18.560;2024-01-15T09:22:42;97810.34;;;3.56;66.94
28797;BME280;24974;54.444;18.560;2024-01-15T09:25:13;97815.19;;;4.29;64.75
28797;BME280;24974;54.444;18.560;2024-01-15T09:27:44;97816.47;;;3.32;67.33
28797;BME280;24974;54.444;18.560;2024-01-15T09:30:15;97820.00;;;3.65;65.39
28797;BME280;24974;54.444;18.560;2024-01-15T09:32:46;97816.84;;;5.19;61.53
28797;BME280;24974;54.444;18.560;2024-01-15T09:35:17;97818.25;;;5.00;61.95
28797;BME280;24974;54.444;18.560;2024-01-15T09:37:48;97811.22;;;4.87;60.96
28797;BME280;24974;54.444;18.560;2024-01-15T09:40:20;97821.88;;;4.31;62.26
28797;BME280;24974;54.444;18.560;2024-01-15T09:42:52;97806.66;;;5.03;61.06
28797;BME280;24974;54.444;18.560;2024-01-15T09:45:23;97802.63;;;4.48;62.52
28797;BME280;24974;54.444;18.560;2024-01-15T09:47:54;97806.09;;;4.25;62.69
28797;BME280;24974;54.444;18.560;2024-01-15T09:50:25;97792.16;;;4.14;61.58
28797;BME280;24974;54.444;18.560;2024-01-15T09:52:57;97789.91;;;4.40;61.71
28797;BME280;24974;54.444;18.560;2024-01-15T09:55:29;97783.81;;;3.74;62.39
28797;BME280;24974;54.444;18.560;2024-01-15T09:58:00;97787.94;;;3.59;62.62
28797;BME280;24974;54.444;18.560;2024-01-15T10:00:33;97786.75;;;4.63;59.88
28797;BME280;24974;54.444;18.560;2024-01-15T10:03:07;97787.31;;;4.68;59.85
28797;BME280;24974;54.444;18.560;2024-01-15T10:05:41;97782.81;;;3.45;62.21
28797;BME280;24974;54.444;18.560;2024-01-15T10:08:13;97796.03;;;4.13;61.67
28797;BME280;24974;54.444;18.560;2024-01-15T10:10:44;97795.28;;;3.91;61.79
28797;BME280;24974;54.444;18.560;2024-01-15T10:13:15;97780.81;;;3.87;62.22
28797;BME280;24974;54.444;18.560;2024-01-15T10:15:46;97768.72;;;4.83;59.86
28797;BME280;24974;54.444;18.560;2024-01-15T10:18:17;97751.97;;;4.07;61.76
28797;BME280;24974;54.444;18.560;2024-01-15T10:20:48;97760.78;;;5.30;57.63
28797;BME280;24974;54.444;18.560;2024-01-15T10:23:19;97768.16;;;4.04;59.80
28797;BME280;24974;54.444;18.560;2024-01-15T10:25:50;97774.94;;;3.98;60.17
28797;BME280;24974;54.444;18.560;2024-01-15T10:28:26;97763.88;;;4.27;59.74
28797;BME280;24974;54.444;18.560;2024-01-15T10:30:58;97754.59;;;4.53;57.65
28797;BME280;24974;54.444;18.560;2024-01-15T10:33:29;97758.53;;;4.55;57.32
28797;BME280;24974;54.444;18.560;2024-01-15T10:36:00;97771.19;;;5.28;55.00
28797;BME280;24974;54.444;18.560;2024-01-15T10:38:31;97750.47;;;5.23;55.83
28797;BME280;24974;54.444;18.560;2024-01-15T10:41:02;97762.41;;;4.17;57.66
28797;BME280;24974;54.444;18.560;2024-01-15T10:43:33;97766.38;;;3.29;61.77
28797;BME280;24974;54.444;18.560;2024-01-15T10:46:04;97779.91;;;3.96;62.16
28797;BME280;24974;54.444;18.560;2024-01-15T10:48:35;97778.03;;;4.33;62.51
28797;BME280;24974;54.444;18.560;2024-01-15T10:51:06;97778.19;;;3.79;65.75
28797;BME280;24974;54.444;18.560;2024-01-15T10:53:41;97774.84;;;4.06;65.74
28797;BME280;24974;54.444;18.560;2024-01-15T10:56:13;97768.63;;;4.18;66.37
28797;BME280;24974;54.444;18.560;2024-01-15T10:58:45;97779.78;;;3.92;65.33
28797;BME280;24974;54.444;18.560;2024-01-15T11:01:16;97771.44;;;4.21;62.66
28797;BME280;24974;54.444;18.560;2024-01-15T11:03:48;97767.66;;;3.89;63.84
28797;BME280;24974;54.444;18.560;2024-01-15T11:06:19;97778.31;;;3.49;63.35
28797;BME280;24974;54.444;18.560;2024-01-15T11:08:52;97759.72;;;3.84;62.43
28797;BME280;24974;54.444;18.560;2024-01-15T11:11:23;97759.69;;;4.30;61.36
28797;BME280;24974;54.444;18.560;2024-01-15T11:13:54;97769.56;;;3.77;62.68
28797;BME280;24974;54.444;18.560;2024-01-15T11:16:53;97778.00;;;3.96;63.27
28797;BME280;24974;54.444;18.560;2024-01-15T11:19:24;97754.56;;;4.04;63.86
28797;BME280;24974;54.444;18.560;2024-01-15T11:21:55;97752.38;;;3.85;63.95
28797;BME280;24974;54.444;18.560;2024-01-15T11:24:39;97739.75;;;4.13;63.30
28797;BME280;24974;54.444;18.560;2024-01-15T11:27:10;97743.94;;;4.23;63.20
28797;BME280;24974;54.444;18.560;2024-01-15T11:29:41;97741.53;;;3.97;62.74
28797;BME280;24974;54.444;18.560;2024-01-15T11:32:12;97725.81;;;4.27;62.59
28797;BME280;24974;54.444;18.560;2024-01-15T11:34:57;97734.41;;;4.29;62.28
28797;BME280;24974;54.444;18.560;2024-01-15T11:40:35;97714.91;;;4.64;60.36
28797;BME280;24974;54.444;18.560;2024-01-15T11:43:08;97730.44;;;4.14;60.96
28797;BME280;24974;54.444;18.560;2024-01-15T11:45:39;97714.03;;;3.99;60.71
28797;BME280;24974;54.444;18.560;2024-01-15T11:48:15;97727.13;;;4.82;58.92
28797;BME280;24974;54.444;18.560;2024-01-15T11:50:49;97716.84;;;4.51;59.89
28797;BME280;24974;54.444;18.560;2024-01-15T11:53:40;97727.63;;;4.35;59.83
28797;BME280;24974;54.444;18.560;2024-01-15T11:56:17;97724.88;;;4.60;58.29
28797;BME280;24974;54.444;18.560;2024-01-15T11:58:51;97717.66;;;4.27;59.33
28797;BME280;24974;54.444;18.560;2024-01-15T12:01:23;97691.78;;;4.70;58.87
28797;BME280;24974;54.444;18.560;2024-01-15T12:03:54;97695.75;;;4.48;59.55
28797;BME280;24974;54.444;18.560;2024-01-15T12:06:25;97704.28;;;4.22;59.69
28797;BME280;24974;54.444;18.560;2024-01-15T12:09:08;97693.88;;;4.00;60.18
28797;BME280;24974;54.444;18.560;2024-01-15T12:11:42;97678.41;;;4.65;59.56
28797;BME280;24974;54.444;18.560;2024-01-15T12:14:17;97686.97;;;4.02;61.65
28797;BME280;24974;54.444;18.560;2024-01-15T12:16:49;97678.59;;;4.07;60.79
28797;BME280;24974;54.444;18.560;2024-01-15T12:19:20;97670.19;;;3.63;62.39
28797;BME280;24974;54.444;18.560;2024-01-15T12:21:51;97685.91;;;3.58;63.42
28797;BME280;24974;54.444;18.560;2024-01-15T12:24:21;97686.53;;;3.43;65.13
28797;BME280;24974;54.444;18.560;2024-01-15T12:26:53;97676.78;;;3.87;64.01
28797;BME280;24974;54.444;18.560;2024-01-15T12:29:23;97674.94;;;3.67;64.44
28797;BME280;24974;54.444;18.560;2024-01-15T12:31:54;97689.53;;;3.17;64.96
28797;BME280;24974;54.444;18.560;2024-01-15T12:34:29;97676.69;;;3.38;63.98
28797;BME280;24974;54.444;18.560;2024-01-15T12:37:00;97688.88;;;3.77;63.30
28797;BME280;24974;54.444;18.560;2024-01-15T12:39:31;97681.19;;;3.79;63.41
28797;BME280;24974;54.444;18.560;2024-01-15T12:42:04;97683.06;;;3.54;63.48
28797;BME280;24974;54.444;18.560;2024-01-15T12:44:39;97700.44;;;3.41;64.31
28797;BME280;24974;54.444;18.560;2024-01-15T12:47:09;97690.34;;;3.75;63.56
28797;BME280;24974;54.444;18.560;2024-01-15T12:49:40;97684.19;;;3.20;65.04
28797;BME280;24974;54.444;18.560;2024-01-15T12:52:11;97677.44;;;3.26;65.11
28797;BME280;24974;54.444;18.560;2024-01-15T12:54:42;97669.88;;;3.77;64.25
28797;BME280;24974;54.444;18.560;2024-01-15T12:57:12;97674.72;;;3.72;64.04
28797;BME280;24974;54.444;18.560;2024-01-15T12:59:44;97668.72;;;3.90;62.73
28797;BME280;24974;54.444;18.560;2024-01-15T13:02:16;97664.63;;;4.45;61.34
28797;BME280;24974;54.444;18.560;2024-01-15T13:04:47;97661.41;;;3.33;63.74
28797;BME280;24974;54.444;18.560;2024-01-15T13:07:19;97668.97;;;3.85;63.39
28797;BME280;24974;54.444;18.560;2024-01-15T13:09:49;97667.72;;;3.71;62.66
28797;BME280;24974;54.444;18.560;2024-01-15T13:12:24;97655.38;;;3.85;62.30
28797;BME280;24974;54.444;18.560;2024-01-15T13:14:55;97667.94;;;3.90;61.54
28797;BME280;24974;54.444;18.560;2024-01-15T13:17:26;97657.31;;;4.74;59.59
28797;BME280;24974;54.444;18.560;2024-01-15T13:19:57;97684.38;;;4.18;60.87
28797;BME280;24974;54.444;18.560;2024-01-15T13:22:28;97679.72;;;4.18;61.30
28797;BME280;24974;54.444;18.560;2024-01-15T13:25:03;97687.06;;;3.81;63.17